sensor_id;sensor_type;location;lat;lon;timestamp;pressure;altitude;pressure_sealevel;temperature;humidity
60427;BME280;46274;47.168;27.604;2024-01-11T00:03:06;100892.22;;;-8.87;67.53
60427;BME280;46274;47.168;27.604;2024-01-11T00:09:07;100899.91;;;-9.64;68.65
60427;BME280;46274;47.168;27.604;2024-01-11T00:15:09;100889.84;;;-9.41;68.12
60427;BME280;46274;47.168;27.604;2024-01-11T00:21:11;100882.44;;;-8.80;66.93
60427;BME280;46274;47.168;27.604;2024-01-11T00:27:13;100875.50;;;-9.25;68.04
60427;BME280;46274;47.168;27.604;2024-01-11T00:33:18;100840.81;;;-9.84;70.30
60427;BME280;46274;47.168;27.604;2024-01-11T00:39:20;100811.66;;;-10.62;72.28
60427;BME280;46274;47.168;27.604;2024-01-11T00:45:22;100760.28;;;-10.21;70.46
60427;BME280;46274;47.168;27.604;2024-01-11T00:51:24;100849.56;;;-9.40;69.20
60427;BME280;46274;47.168;27.604;2024-01-11T00:57:29;100841.38;;;-9.67;69.67
60427;BME280;46274;47.168;27.604;2024-01-11T01:03:30;100813.59;;;-9.35;68.50
60427;BME280;46274;47.168;27.604;2024-01-11T01:09:35;100755.66;;;-9.64;68.20
60427;BME280;46274;47.168;27.604;2024-01-11T01:15:37;100832.50;;;-9.59;71.55
60427;BME280;46274;47.168;27.604;2024-01-11T01:21:39;100827.03;;;-9.50;70.41
60427;BME280;46274;47.168;27.604;2024-01-11T01:27:40;100783.22;;;-10.85;71.06
60427;BME280;46274;47.168;27.604;2024-01-11T01:33:42;100798.63;;;-10.17;72.24
60427;BME280;46274;47.168;27.604;2024-01-11T01:39:45;100780.44;;;-9.37;70.26
60427;BME280;46274;47.168;27.604;2024-01-11T01:45:47;100764.16;;;-9.53;71.57
60427;BME280;46274;47.168;27.604;2024-01-11T01:51:49;100731.00;;;-9.98;71.62
60427;BME280;46274;47.168;27.604;2024-01-11T01:57:52;100731.31;;;-9.71;71.10
60427;BME280;46274;47.168;27.604;2024-01-11T02:03:55;100653.53;;;-10.13;70.94
60427;BME280;46274;47.168;27.604;2024-01-11T02:09:58;100746.78;;;-9.57;70.57
60427;BME280;46274;47.168;27.604;2024-01-11T02:16:01;100738.25;;;-10.11;72.78
60427;BME280;46274;47.168;27.604;2024-01-11T02:22:22;100703.53;;;-9.80;73.75
60427;BME280;46274;47.168;27.604;2024-01-11T02:28:25;100718.69;;;-9.52;71.99
60427;BME280;46274;47.168;27.604;2024-01-11T02:34:27;100647.88;;;-10.78;75.52
60427;BME280;46274;47.168;27.604;2024-01-11T02:40:31;100684.31;;;-10.22;75.92
60427;BME280;46274;47.168;27.604;2024-01-11T02:46:38;100596.75;;;-10.98;76.28
60427;BME280;46274;47.168;27.604;2024-01-11T02:52:41;100645.75;;;-10.16;76.06
60427;BME280;46274;47.168;27.604;2024-01-11T02:58:43;100612.41;;;-10.49;75.59
60427;BME280;46274;47.168;27.604;2024-01-11T03:04:46;100644.59;;;-10.02;74.43
60427;BME280;46274;47.168;27.604;2024-01-11T03:10:48;100568.44;;;-10.35;72.87
60427;BME280;46274;47.168;27.604;2024-01-11T03:16:50;100646.63;;;-9.75;71.69
60427;BME280;46274;47.168;27.604;2024-01-11T03:22:53;100657.72;;;-9.63;71.22
60427;BME280;46274;47.168;27.604;2024-01-11T03:28:55;100638.41;;;-9.59;71.19
60427;BME280;46274;47.168;27.604;2024-01-11T03:34:57;100643.16;;;-9.75;72.32
60427;BME280;46274;47.168;27.604;2024-01-11T03:40:59;100638.53;;;-9.66;71.21
60427;BME280;46274;47.168;27.604;2024-01-11T03:47:01;100622.38;;;-9.47;71.42
60427;BME280;46274;47.168;27.604;2024-01-11T03:53:03;100570.06;;;-9.53;71.27
60427;BME280;46274;47.168;27.604;2024-01-11T03:59:06;100613.69;;;-9.49;71.41
60427;BME280;46274;47.168;27.604;2024-01-11T04:05:08;100319.94;;;-10.83;70.53
60427;BME280;46274;47.168;27.604;2024-01-11T04:11:10;100422.47;;;-11.50;72.64
60427;BME280;46274;47.168;27.604;2024-01-11T04:17:12;100468.91;;;-11.16;75.91
60427;BME280;46274;47.168;27.604;2024-01-11T04:23:14;100558.59;;;-10.24;74.34
60427;BME280;46274;47.168;27.604;2024-01-11T04:29:15;100473.19;;;-10.70;73.50
60427;BME280;46274;47.168;27.604;2024-01-11T04:35:17;100567.53;;;-9.94;73.49
60427;BME280;46274;47.168;27.604;2024-01-11T04:41:19;100542.94;;;-10.27;75.37
60427;BME280;46274;47.168;27.604;2024-01-11T04:47:21;100533.94;;;-10.52;76.04
60427;BME280;46274;47.168;27.604;2024-01-11T04:53:23;100503.72;;;-9.57;73.32
60427;BME280;46274;47.168;27.604;2024-01-11T04:59:25;100514.09;;;-8.87;72.95
60427;BME280;46274;47.168;27.604;2024-01-11T05:05:27;100504.59;;;-8.33;72.63
60427;BME280;46274;47.168;27.604;2024-01-11T05:11:30;100509.56;;;-7.96;72.41
60427;BME280;46274;47.168;27.604;2024-01-11T05:17:33;100497.53;;;-8.03;72.11
60427;BME280;46274;47.168;27.604;2024-01-11T05:23:35;100438.66;;;-8.25;72.30
60427;BME280;46274;47.168;27.604;2024-01-11T05:29:38;100477.34;;;-7.74;71.24
60427;BME280;46274;47.168;27.604;2024-01-11T05:35:41;100452.41;;;-9.03;75.15
60427;BME280;46274;47.168;27.604;2024-01-11T05:41:44;100434.53;;;-9.22;73.29
60427;BME280;46274;47.168;27.604;2024-01-11T05:47:50;100462.69;;;-8.09;73.36
60427;BME280;46274;47.168;27.604;2024-01-11T05:53:52;100475.00;;;-8.10;72.92
60427;BME280;46274;47.168;27.604;2024-01-11T05:59:54;100452.09;;;-8.08;72.46
60427;BME280;46274;47.168;27.604;2024-01-11T06:05:57;100435.50;;;-8.37;72.23
60427;BME280;46274;47.168;27.604;2024-01-11T06:11:59;100423.66;;;-8.22;72.05
60427;BME280;46274;47.168;27.604;2024-01-11T06:18:05;100402.22;;;-8.09;71.79
60427;BME280;46274;47.168;27.604;2024-01-11T06:24:07;100394.59;;;-7.40;71.36
60427;BME280;46274;47.168;27.604;2024-01-11T06:30:10;100341.16;;;-8.43;72.63
60427;BME280;46274;47.168;27.604;2024-01-11T06:36:12;100206.84;;;-8.60;73.08
60427;BME280;46274;47.168;27.604;2024-01-11T06:42:14;100346.19;;;-7.13;72.74
60427;BME280;46274;47.168;27.604;2024-01-11T06:48:16;100358.81;;;-6.53;71.04
60427;BME280;46274;47.168;27.604;2024-01-11T06:54:20;100306.50;;;-6.63;70.39
60427;BME280;46274;47.168;27.604;2024-01-11T07:00:23;100296.16;;;-6.47;70.75
60427;BME280;46274;47.168;27.604;2024-01-11T07:06:25;100272.38;;;-6.25;70.73
60427;BME280;46274;47.168;27.604;2024-01-11T07:12:29;100319.09;;;-5.46;70.45
60427;BME280;46274;47.168;27.604;2024-01-11T07:18:31;100338.59;;;-4.73;67.55
60427;BME280;46274;47.168;27.604;2024-01-11T07:24:37;100326.19;;;-4.71;68.58
60427;BME280;46274;47.168;27.604;2024-01-11T07:30:40;100285.19;;;-4.44;68.05
60427;BME280;46274;47.168;27.604;2024-01-11T07:36:43;100258.72;;;-4.26;68.43
60427;BME280;46274;47.168;27.604;2024-01-11T07:42:45;100281.19;;;-4.00;68.02
60427;BME280;46274;47.168;27.604;2024-01-11T07:48:48;100276.63;;;-3.97;68.22
60427;BME280;46274;47.168;27.604;2024-01-11T07:54:50;100205.97;;;-4.12;67.53
60427;BME280;46274;47.168;27.604;2024-01-11T08:00:53;100253.03;;;-3.51;66.34
60427;BME280;46274;47.168;27.604;2024-01-11T08:07:02;100185.25;;;-3.70;66.41
60427;BME280;46274;47.168;27.604;2024-01-11T08:13:05;100190.81;;;-3.43;66.36
60427;BME280;46274;47.168;27.604;2024-01-11T08:19:07;100184.75;;;-3.14;63.95
60427;BME280;46274;47.168;27.604;2024-01-11T08:25:28;100233.84;;;-3.07;68.06
60427;BME280;46274;47.168;27.604;2024-01-11T08:31:33;100215.00;;;-2.86;66.80
60427;BME280;46274;47.168;27.604;2024-01-11T08:37:42;100188.91;;;-2.78;66.83
60427;BME280;46274;47.168;27.604;2024-01-11T08:43:53;100207.75;;;-2.52;65.86
60427;BME280;46274;47.168;27.604;2024-01-11T08:49:58;99895.66;;;-4.14;65.15
60427;BME280;46274;47.168;27.604;2024-01-11T08:56:10;100190.22;;;-2.10;65.51
60427;BME280;46274;47.168;27.604;2024-01-11T09:02:14;100171.19;;;-1.88;64.71
60427;BME280;46274;47.168;27.604;2024-01-11T09:08:21;100159.78;;;-1.62;64.68
60427;BME280;46274;47.168;27.604;2024-01-11T09:14:34;100096.72;;;-1.72;64.72
60427;BME280;46274;47.168;27.604;2024-01-11T09:20:38;100137.75;;;-1.22;64.31
60427;BME280;46274;47.168;27.604;2024-01-11T09:26:57;100119.84;;;-1.06;63.77
60427;BME280;46274;47.168;27.604;2024-01-11T09:33:06;100104.53;;;-0.62;62.31
60427;BME280;46274;47.168;27.604;2024-01-11T09:39:17;100118.31;;;-0.30;62.04
60427;BME280;46274;47.168;27.604;2024-01-11T09:45:22;99968.81;;;-1.01;62.00
60427;BME280;46274;47.168;27.604;2024-01-11T09:51:25;100074.75;;;-0.29;60.37
60427;BME280;46274;47.168;27.604;2024-01-11T09:57:31;99998.84;;;-0.48;60.72
60427;BME280;46274;47.168;27.604;2024-01-11T10:03:43;100060.28;;;0.25;61.57
60427;BME280;46274;47.168;27.604;2024-01-11T10:09:48;100083.34;;;0.50;62.37
60427;BME280;46274;47.168;27.604;2024-01-11T10:16:09;100066.72;;;0.70;64.21
60427;BME280;46274;47.168;27.604;2024-01-11T10:22:12;100056.63;;;0.86;63.23
60427;BME280;46274;47.168;27.604;2024-01-11T10:28:19;100054.13;;;0.96;62.02
60427;BME280;46274;47.168;27.604;2024-01-11T10:34:23;100038.47;;;1.03;61.34
60427;BME280;46274;47.168;27.604;2024-01-11T10:40:26;100022.28;;;1.28;60.83
60427;BME280;46274;47.168;27.604;2024-01-11T10:46:30;99963.34;;;1.20;62.77
60427;BME280;46274;47.168;27.604;2024-01-11T10:52:42;99988.59;;;1.61;57.32
60427;BME280;46274;47.168;27.604;2024-01-11T10:58:50;99977.75;;;2.08;56.80
60427;BME280;46274;47.168;27.604;2024-01-11T11:04:53;99961.69;;;2.19;56.48
60427;BME280;46274;47.168;27.604;2024-01-11T11:11:01;99954.88;;;2.58;60.00
60427;BME280;46274;47.168;27.604;2024-01-11T11:17:11;99918.59;;;2.12;59.91
60427;BME280;46274;47.168;27.604;2024-01-11T11:23:15;99908.22;;;2.51;59.42
60427;BME280;46274;47.168;27.604;2024-01-11T11:29:19;99913.47;;;2.74;54.09
60427;BME280;46274;47.168;27.604;2024-01-11T11:35:25;99898.00;;;2.77;58.76
60427;BME280;46274;47.168;27.604;2024-01-11T11:41:43;99865.81;;;2.68;59.82
60427;BME280;46274;47.168;27.604;2024-01-11T11:47:55;99852.41;;;2.79;58.98
60427;BME280;46274;47.168;27.604;2024-01-11T11:54:25;99875.56;;;2.99;58.41
60427;BME280;46274;47.168;27.604;2024-01-11T12:00:28;99854.53;;;2.85;56.92
60427;BME280;46274;47.168;27.604;2024-01-11T12:06:39;99800.78;;;2.67;56.95
60427;BME280;46274;47.168;27.604;2024-01-11T12:13:12;99848.19;;;3.17;51.07
60427;BME280;46274;47.168;27.604;2024-01-11T12:19:48;99695.53;;;1.95;49.15
60427;BME280;46274;47.168;27.604;2024-01-11T12:26:17;99829.22;;;2.68;49.28
60427;BME280;46274;47.168;27.604;2024-01-11T12:32:28;99838.69;;;2.51;51.49
60427;BME280;46274;47.168;27.604;2024-01-11T12:38:59;99830.69;;;2.30;49.50
60427;BME280;46274;47.168;27.604;2024-01-11T12:45:22;99844.56;;;2.45;55.14
60427;BME280;46274;47.168;27.604;2024-01-11T12:51:45;99847.56;;;2.31;52.54
60427;BME280;46274;47.168;27.604;2024-01-11T12:58:06;99808.47;;;1.98;55.59
60427;BME280;46274;47.168;27.604;2024-01-11T13:04:13;99793.25;;;1.77;55.59
60427;BME280;46274;47.168;27.604;2024-01-11T13:10:16;99805.25;;;1.83;56.23
60427;BME280;46274;47.168;27.604;2024-01-11T13:16:19;99800.50;;;1.86;56.57
60427;BME280;46274;47.168;27.604;2024-01-11T13:22:22;99781.66;;;1.88;57.02
60427;BME280;46274;47.168;27.604;2024-01-11T13:28:30;99704.16;;;1.46;57.89
60427;BME280;46274;47.168;27.604;2024-01-11T13:34:44;99780.38;;;2.03;58.82
60427;BME280;46274;47.168;27.604;2024-01-11T13:40:53;99775.31;;;2.00;60.37
60427;BME280;46274;47.168;27.604;2024-01-11T13:47:15;99751.94;;;1.60;60.61
60427;BME280;46274;47.168;27.604;2024-01-11T13:53:20;99771.09;;;1.65;59.59
60427;BME280;46274;47.168;27.604;2024-01-11T13:59:33;99774.97;;;1.61;60.45
60427;BME280;46274;47.168;27.604;2024-01-11T14:05:39;99769.75;;;1.60;60.49
60427;BME280;46274;47.168;27.604;2024-01-11T14:11:46;99714.31;;;1.20;60.70
60427;BME280;46274;47.168;27.604;2024-01-11T14:17:58;99743.78;;;1.29;59.93
60427;BME280;46274;47.168;27.604;2024-01-11T14:24:04;99745.47;;;1.30;60.43
60427;BME280;46274;47.168;27.604;2024-01-11T14:30:40;99738.28;;;1.31;59.63
60427;BME280;46274;47.168;27.604;2024-01-11T14:36:48;99718.81;;;1.19;59.66
60427;BME280;46274;47.168;27.604;2024-01-11T14:43:01;99732.63;;;1.24;60.25
60427;BME280;46274;47.168;27.604;2024-01-11T14:49:07;99729.00;;;1.14;61.87
60427;BME280;46274;47.168;27.604;2024-01-11T14:55:19;99639.84;;;0.62;62.64
60427;BME280;46274;47.168;27.604;2024-01-11T15:01:43;99698.50;;;0.96;63.19
60427;BME280;46274;47.168;27.604;2024-01-11T15:07:58;99671.38;;;0.68;63.84
60427;BME280;46274;47.168;27.604;2024-01-11T15:14:06;99701.31;;;0.83;63.25
60427;BME280;46274;47.168;27.604;2024-01-11T15:20:15;99712.81;;;0.72;65.21
60427;BME280;46274;47.168;27.604;2024-01-11T15:26:43;99717.28;;;0.72;64.84
60427;BME280;46274;47.168;27.604;2024-01-11T15:33:09;99673.94;;;0.58;62.43
60427;BME280;46274;47.168;27.604;2024-01-11T15:39:26;99688.31;;;0.67;62.70
60427;BME280;46274;47.168;27.604;2024-01-11T15:45:32;99635.66;;;0.37;63.04
60427;BME280;46274;47.168;27.604;2024-01-11T15:51:47;99711.13;;;0.71;64.28
60427;BME280;46274;47.168;27.604;2024-01-11T15:57:51;99689.56;;;0.52;65.22
60427;BME280;46274;47.168;27.604;2024-01-11T16:03:59;99664.75;;;0.29;66.30
60427;BME280;46274;47.168;27.604;2024-01-11T16:10:31;99615.44;;;0.01;68.39
60427;BME280;46274;47.168;27.604;2024-01-11T16:17:17;99694.78;;;0.42;69.77
60427;BME280;46274;47.168;27.604;2024-01-11T16:23:51;99664.13;;;0.36;71.11
60427;BME280;46274;47.168;27.604;2024-01-11T16:30:11;99702.88;;;0.63;72.45
60427;BME280;46274;47.168;27.604;2024-01-11T16:36:28;99639.88;;;0.28;76.97
60427;BME280;46274;47.168;27.604;2024-01-11T16:42:49;99605.63;;;0.01;85.45
60427;BME280;46274;47.168;27.604;2024-01-11T16:49:21;99711.84;;;0.62;88.48
60427;BME280;46274;47.168;27.604;2024-01-11T17:02:57;99699.63;;;0.48;90.77
60427;BME280;46274;47.168;27.604;2024-01-11T17:09:32;99661.47;;;0.14;90.41
60427;BME280;46274;47.168;27.604;2024-01-11T17:16:01;99699.25;;;0.19;91.09
60427;BME280;46274;47.168;27.604;2024-01-11T17:22:46;99599.88;;;-0.51;91.12
60427;BME280;46274;47.168;27.604;2024-01-11T17:29:20;99737.25;;;0.10;91.64
60427;BME280;46274;47.168;27.604;2024-01-11T17:43:10;99374.34;;;-2.21;92.31
60427;BME280;46274;47.168;27.604;2024-01-11T17:49:45;99679.75;;;-0.39;92.43
60427;BME280;46274;47.168;27.604;2024-01-11T17:55:52;99631.06;;;-0.88;92.52
60427;BME280;46274;47.168;27.604;2024-01-11T18:02:16;99705.25;;;-0.48;92.51
60427;BME280;46274;47.168;27.604;2024-01-11T18:08:29;99527.16;;;-1.68;91.96
60427;BME280;46274;47.168;27.604;2024-01-11T18:15:02;99686.00;;;-0.76;92.71
60427;BME280;46274;47.168;27.604;2024-01-11T18:21:49;99373.13;;;-2.77;92.56
60427;BME280;46274;47.168;27.604;2024-01-11T18:28:22;99725.84;;;-0.63;92.96
60427;BME280;46274;47.168;27.604;2024-01-11T18:35:09;99396.22;;;-2.67;92.46
60427;BME280;46274;47.168;27.604;2024-01-11T18:42:00;99490.53;;;-2.13;93.04
60427;BME280;46274;47.168;27.604;2024-01-11T18:48:46;99717.75;;;-0.85;93.30
60427;BME280;46274;47.168;27.604;2024-01-11T18:55:10;99582.63;;;-1.77;94.22
60427;BME280;46274;47.168;27.604;2024-01-11T19:01:25;99702.06;;;-1.01;94.98
60427;BME280;46274;47.168;27.604;2024-01-11T19:07:41;99659.97;;;-1.32;95.67
60427;BME280;46274;47.168;27.604;2024-01-11T19:14:11;99635.66;;;-1.38;95.30
60427;BME280;46274;47.168;27.604;2024-01-11T19:20:41;99723.44;;;-0.90;96.18
60427;BME280;46274;47.168;27.604;2024-01-11T19:27:03;99673.84;;;-1.15;95.49
60427;BME280;46274;47.168;27.604;2024-01-11T19:33:06;99677.03;;;-1.10;95.72
60427;BME280;46274;47.168;27.604;2024-01-11T19:39:30;99717.84;;;-0.74;93.99
60427;BME280;46274;47.168;27.604;2024-01-11T19:45:56;99734.41;;;-0.71;93.77
60427;BME280;46274;47.168;27.604;2024-01-11T19:52:08;99669.78;;;-1.08;93.44
60427;BME280;46274;47.168;27.604;2024-01-11T19:58:26;99656.41;;;-1.19;93.24
60427;BME280;46274;47.168;27.604;2024-01-11T20:04:41;99723.81;;;-0.83;92.63
60427;BME280;46274;47.168;27.604;2024-01-11T20:10:59;99735.19;;;-0.81;92.94
60427;BME280;46274;47.168;27.604;2024-01-11T20:17:31;99760.78;;;-0.68;93.00
60427;BME280;46274;47.168;27.604;2024-01-11T20:23:47;99638.63;;;-1.43;93.48
60427;BME280;46274;47.168;27.604;2024-01-11T20:30:01;99702.00;;;-1.13;94.06
60427;BME280;46274;47.168;27.604;2024-01-11T20:36:41;99763.06;;;-0.74;93.22
60427;BME280;46274;47.168;27.604;2024-01-11T20:43:13;99385.03;;;-2.96;92.35
60427;BME280;46274;47.168;27.604;2024-01-11T20:49:56;99772.63;;;-0.72;92.05
60427;BME280;46274;47.168;27.604;2024-01-11T20:56:23;99764.97;;;-0.76;91.00
60427;BME280;46274;47.168;27.604;2024-01-11T21:02:40;99729.50;;;-1.01;90.77
60427;BME280;46274;47.168;27.604;2024-01-11T21:09:20;99747.69;;;-0.95;91.72
60427;BME280;46274;47.168;27.604;2024-01-11T21:15:35;99769.88;;;-0.83;91.52
60427;BME280;46274;47.168;27.604;2024-01-11T21:22:19;99732.25;;;-1.26;91.31
60427;BME280;46274;47.168;27.604;2024-01-11T21:29:34;99444.94;;;-2.93;90.85
60427;BME280;46274;47.168;27.604;2024-01-11T21:36:28;99743.72;;;-1.13;91.04
60427;BME280;46274;47.168;27.604;2024-01-11T21:43:00;99457.75;;;-2.87;89.19
60427;BME280;46274;47.168;27.604;2024-01-11T21:49:26;99765.03;;;-1.02;90.33
60427;BME280;46274;47.168;27.604;2024-01-11T21:56:11;99766.72;;;-1.01;89.93
60427;BME280;46274;47.168;27.604;2024-01-11T22:02:40;99773.59;;;-1.22;91.94
60427;BME280;46274;47.168;27.604;2024-01-11T22:08:47;99763.81;;;-1.35;93.46
60427;BME280;46274;47.168;27.604;2024-01-11T22:15:00;99785.03;;;-1.09;91.10
60427;BME280;46274;47.168;27.604;2024-01-11T22:21:15;99790.66;;;-1.01;89.08
60427;BME280;46274;47.168;27.604;2024-01-11T22:27:39;99778.47;;;-1.16;88.97
60427;BME280;46274;47.168;27.604;2024-01-11T22:33:56;99781.31;;;-1.06;88.08
60427;BME280;46274;47.168;27.604;2024-01-11T22:40:11;99790.56;;;-0.99;88.25
60427;BME280;46274;47.168;27.604;2024-01-11T22:46:33;99742.03;;;-1.40;88.77
60427;BME280;46274;47.168;27.604;2024-01-11T22:52:45;99794.22;;;-1.13;88.17
60427;BME280;46274;47.168;27.604;2024-01-11T22:59:01;99827.34;;;-0.93;87.54
60427;BME280;46274;47.168;27.604;2024-01-11T23:05:18;99825.56;;;-0.93;86.78
60427;BME280;46274;47.168;27.604;2024-01-11T23:11:26;99834.16;;;-0.89;86.61
60427;BME280;46274;47.168;27.604;2024-01-11T23:17:34;99824.59;;;-0.92;86.09
60427;BME280;46274;47.168;27.604;2024-01-11T23:23:40;99812.56;;;-0.84;85.13
60427;BME280;46274;47.168;27.604;2024-01-11T23:29:45;99809.47;;;-0.91;85.83
60427;BME280;46274;47.168;27.604;2024-01-11T23:35:48;99805.22;;;-0.94;86.40
60427;BME280;46274;47.168;27.604;2024-01-11T23:42:02;99804.38;;;-0.94;86.41
60427;BME280;46274;47.168;27.604;2024-01-11T23:48:09;99790.59;;;-1.12;86.77
60427;BME280;46274;47.168;27.604;2024-01-11T23:54:46;99820.44;;;-0.96;86.92
